Portada
METAR-TAF:

METAR-TAF

Aeroports :

Conway, Carolina del Sud, Estats Units d'Amèrica

latitud: 33-49-42N, longitud: 079-07-19W, altitud: 11 m

Observació

L'informe es va fer fa 16 minuts, a les 00:55 UTC
Vent 3 kt del Sud/Sud-Est
Temperatura 27°C
Humitat 84%
Pressió 1016 hPa
Visibilitat: 16.1 km
Cel clar

METAR: KHYW 110055Z AUTO 16003KT 10SM CLR 27/24 A3000 RMK AO2 LTG DSNT W THRU N

Hora: 21:11 (01:11 UTC)


TAF: manca

Observacions i pronòstics meteorològics de més de 4000 aeroports (METAR i TAF).

Les estacions disponibles són els punts grocs i vermells al mapa.

Posi el ratolí al punt desitjat per veure el nom de l'estació.

Feu clic per veure les observacions i els pronòstics meteorològics.

Per canviar el mapa: feu clic els botons verds amb una creu de color negre per apropar; al botó verd amb un guió per allunyar la imatge; o en les fletxes verdes per a mapes adjacents.


METAR-TAF: